Time;durP1;ratioP1;P1;durP2;ratioP2;P2;SDS_P1;SDS_P2;PMS_P1;PMS_P2;Temp;Humidity;BMP_temperature;BMP_pressure;BME280_temperature;BME280_humidity;BME280_pressure;Samples;Min_cycle;Max_cycle;Signal;HPM_P1;HPM_P2
2023/08/14 00:00:07;;;;;;;10.43;7.75;;;;;;;26.48;100.00;100796.25;31124745;28;20061;-77
2023/08/14 00:15:09;;;;;;;13.38;5.90;;;;;;;26.47;100.00;100781.59;31122255;28;20137;-78
2023/08/14 00:30:12;;;;;;;10.40;7.00;;;;;;;26.48;100.00;100774.00;31158496;28;20088;-78
2023/08/14 00:45:14;;;;;;;8.00;6.53;;;;;;;26.25;100.00;100778.09;31159617;28;20056;-76
2023/08/14 01:00:16;;;;;;;10.68;6.40;;;;;;;26.07;100.00;100780.19;31145564;28;20045;-80
2023/08/14 01:15:25;;;;;;;10.43;6.82;;;;;;;25.95;100.00;100784.25;31145851;28;20056;-76
2023/08/14 01:30:27;;;;;;;8.40;6.13;;;;;;;25.81;100.00;100788.06;31136038;28;20509;-76
2023/08/14 01:45:32;;;;;;;10.07;6.63;;;;;;;26.02;100.00;100810.78;31154670;28;20053;-76
2023/08/14 02:00:34;;;;;;;10.23;6.80;;;;;;;25.84;100.00;100812.09;31136802;28;20567;-77
2023/08/14 02:15:36;;;;;;;10.00;6.60;;;;;;;25.73;100.00;100812.09;31121038;28;20061;-77
2023/08/14 02:30:42;;;;;;;10.00;6.47;;;;;;;25.67;100.00;100816.91;31154895;28;20053;-76
2023/08/14 02:45:44;;;;;;;12.50;6.50;;;;;;;25.45;100.00;100815.63;31145375;28;20061;-76
2023/08/14 03:00:47;;;;;;;9.20;6.72;;;;;;;25.41;100.00;100826.22;31149886;28;20092;-76
2023/08/14 03:15:49;;;;;;;11.53;7.30;;;;;;;25.61;100.00;100828.00;31155881;28;20068;-78
2023/08/14 03:30:52;;;;;;;10.10;7.43;;;;;;;26.06;100.00;100839.88;31159109;28;20057;-76
2023/08/14 03:45:54;;;;;;;8.20;6.13;;;;;;;26.66;100.00;100876.44;31149299;28;20083;-78
2023/08/14 04:00:56;;;;;;;8.07;5.28;;;;;;;27.14;100.00;100900.31;31130020;28;20057;-76
2023/08/14 04:16:03;;;;;;;9.45;5.55;;;;;;;27.62;100.00;100910.19;31141308;28;20141;-78
2023/08/14 04:31:05;;;;;;;7.05;4.63;;;;;;;28.13;93.62;100920.41;31154538;28;20419;-76
2023/08/14 04:46:11;;;;;;;7.97;4.90;;;;;;;28.61;83.99;100930.13;31149640;28;20503;-76
2023/08/14 05:01:13;;;;;;;14.73;5.88;;;;;;;28.75;84.92;100945.72;31128801;28;20145;-77
2023/08/14 05:16:15;;;;;;;10.47;5.67;;;;;;;29.38;83.11;100949.28;31138662;28;20111;-76
2023/08/14 05:31:17;;;;;;;11.17;6.67;;;;;;;29.85;82.43;100963.63;31137005;28;20053;-78
2023/08/14 05:46:23;;;;;;;;;;;;;;;30.31;74.18;100967.22;31148090;28;20207;-79
2023/08/14 06:01:26;;;;;;;19.35;10.80;;;;;;;31.20;74.39;100968.34;31133434;28;20441;-77
2023/08/14 06:16:28;;;;;;;14.75;7.82;;;;;;;31.48;73.54;100982.53;31155695;28;20112;-84
2023/08/14 06:31:31;;;;;;;19.20;8.32;;;;;;;32.14;68.95;100979.47;31168367;28;20093;-83
2023/08/14 06:46:33;;;;;;;16.25;9.35;;;;;;;33.35;62.33;100989.28;31158681;28;20057;-84
2023/08/14 07:01:35;;;;;;;23.45;11.27;;;;;;;33.76;59.63;100993.91;31165423;28;20061;-84
2023/08/14 07:16:37;;;;;;;16.90;8.50;;;;;;;34.41;54.82;100988.72;31175296;28;20476;-85
2023/08/14 07:31:39;;;;;;;12.90;5.85;;;;;;;34.57;51.57;100995.84;31174495;28;20058;-84
2023/08/14 07:46:47;;;;;;;6.45;3.17;;;;;;;35.30;44.85;101001.69;31156882;28;20049;-84
2023/08/14 08:01:49;;;;;;;5.80;2.30;;;;;;;36.05;42.61;100994.88;31155457;28;20432;-85
2023/08/14 08:16:51;;;;;;;3.70;2.72;;;;;;;36.68;41.42;100997.31;31179917;28;20396;-84
2023/08/14 08:31:53;;;;;;;3.55;2.10;;;;;;;37.08;39.92;100993.53;31164542;28;20053;-86
2023/08/14 08:47:03;;;;;;;4.75;2.67;;;;;;;37.28;39.20;100995.19;31117602;28;20155;-82
2023/08/14 09:02:05;;;;;;;10.18;4.50;;;;;;;38.04;38.68;100988.41;31134481;28;20061;-79
2023/08/14 09:17:07;;;;;;;3.35;2.50;;;;;;;38.44;37.75;100990.03;31152261;28;20057;-79
2023/08/14 09:32:11;;;;;;;15.07;2.85;;;;;;;38.79;37.99;100982.75;31132195;28;20050;-78
2023/08/14 09:47:14;;;;;;;5.75;2.42;;;;;;;39.01;36.06;100988.59;31143080;28;20053;-80
2023/08/14 10:02:17;;;;;;;3.85;2.20;;;;;;;39.29;35.51;100989.91;31129483;28;20057;-79
2023/08/14 10:17:29;;;;;;;10.68;7.32;;;;;;;39.43;34.91;100993.75;31133624;28;20420;-79
2023/08/14 10:32:31;;;;;;;4.05;2.03;;;;;;;39.51;35.31;100991.50;31147398;28;20049;-79
2023/08/14 10:47:37;;;;;;;2.63;2.22;;;;;;;40.08;34.60;100982.03;31136825;28;20045;-80
2023/08/14 11:02:41;;;;;;;3.80;2.30;;;;;;;40.97;32.94;100960.88;31153723;28;20057;-78
2023/08/14 11:17:44;;;;;;;2.55;2.25;;;;;;;41.00;34.07;100962.50;31134878;28;20579;-81
2023/08/14 11:32:47;;;;;;;6.30;2.20;;;;;;;40.95;32.87;100952.94;31141182;28;20062;-80
2023/08/14 11:47:50;;;;;;;4.68;2.55;;;;;;;38.14;34.55;100941.03;31139247;28;20058;-80
2023/08/14 12:02:53;;;;;;;8.50;3.60;;;;;;;36.26;37.56;100934.44;31096523;28;20123;-76
2023/08/14 12:17:55;;;;;;;10.25;3.28;;;;;;;35.58;39.46;100918.75;31140217;28;20516;-77
2023/08/14 12:32:58;;;;;;;8.73;4.30;;;;;;;35.36;38.92;100926.03;31126799;28;20053;-78
2023/08/14 12:48:00;;;;;;;4.70;3.85;;;;;;;34.82;38.95;100920.63;31092425;28;20843;-75
2023/08/14 13:03:02;;;;;;;7.57;3.75;;;;;;;34.61;39.50;100897.53;31102556;28;20060;-75
2023/08/14 13:18:09;;;;;;;20.67;14.40;;;;;;;34.40;39.93;100885.78;31101768;28;20053;-77
2023/08/14 13:33:12;;;;;;;6.20;3.97;;;;;;;34.17;40.60;100886.53;31099356;28;20141;-77
2023/08/14 13:48:14;;;;;;;5.78;4.20;;;;;;;34.04;41.20;100878.28;31123431;28;20076;-76
2023/08/14 14:03:16;;;;;;;8.57;5.75;;;;;;;33.90;40.91;100870.59;31088260;28;20081;-76
2023/08/14 14:18:18;;;;;;;9.63;6.20;;;;;;;33.84;41.40;100851.06;31106829;28;20108;-77
2023/08/14 14:33:20;;;;;;;6.53;4.45;;;;;;;33.63;41.60;100847.69;31117047;28;20060;-77
2023/08/14 14:48:22;;;;;;;6.57;3.45;;;;;;;33.47;42.60;100849.75;31141323;28;20467;-75
2023/08/14 15:03:24;;;;;;;8.63;5.32;;;;;;;33.35;43.00;100843.72;31111506;28;20077;-77
2023/08/14 15:18:26;;;;;;;9.70;4.65;;;;;;;33.26;43.30;100858.34;31116233;28;20065;-77
2023/08/14 15:33:28;;;;;;;6.43;3.80;;;;;;;33.17;44.29;100858.84;31121258;28;20041;-76
2023/08/14 15:48:30;;;;;;;14.98;9.32;;;;;;;33.05;44.67;100863.31;31134191;28;20555;-77
2023/08/14 16:03:32;;;;;;;8.75;6.85;;;;;;;32.87;44.98;100863.06;31115615;28;20054;-78
2023/08/14 16:18:36;;;;;;;7.45;4.30;;;;;;;32.64;45.90;100867.06;31103471;28;20054;-77
2023/08/14 16:33:38;;;;;;;7.18;4.05;;;;;;;32.37;46.53;100866.53;31120655;28;20144;-76
2023/08/14 16:48:40;;;;;;;11.02;4.85;;;;;;;32.15;47.84;100873.50;31107590;28;20077;-77
2023/08/14 17:03:43;;;;;;;9.60;5.18;;;;;;;31.80;49.12;100883.34;31097150;28;20050;-77
2023/08/14 17:18:47;;;;;;;16.13;10.00;;;;;;;31.44;50.95;100902.81;31121639;28;20054;-76
2023/08/14 17:33:49;;;;;;;7.68;5.50;;;;;;;31.32;51.64;100918.41;31116692;28;20442;-77
2023/08/14 17:48:51;;;;;;;12.00;7.82;;;;;;;30.97;53.76;100925.22;31126900;28;20050;-79
2023/08/14 18:03:55;;;;;;;9.85;6.53;;;;;;;30.63;55.48;100931.53;31116121;28;20137;-76
2023/08/14 18:18:58;;;;;;;15.05;6.10;;;;;;;30.50;57.79;100942.69;31125580;28;20050;-79
2023/08/14 18:34:19;;;;;;;17.33;8.23;;;;;;;30.25;60.86;100932.97;31124274;28;20054;-78
2023/08/14 18:49:23;;;;;;;;;;;;;;;30.03;66.84;100934.84;31140563;28;20058;-79
2023/08/14 19:04:25;;;;;;;26.70;15.63;;;;;;;29.60;66.96;100937.06;31142296;28;19977;-78
2023/08/14 19:19:42;;;;;;;11.00;6.80;;;;;;;29.27;71.29;100938.28;31143856;28;20463;-82
2023/08/14 19:34:44;;;;;;;15.37;7.90;;;;;;;29.11;74.33;100942.78;31126324;28;20132;-80
2023/08/14 19:49:46;;;;;;;11.90;8.23;;;;;;;29.27;74.27;100955.81;31141555;28;20116;-79
2023/08/14 20:04:48;;;;;;;11.13;7.47;;;;;;;29.24;74.61;100956.84;31111886;28;20082;-78
2023/08/14 20:19:50;;;;;;;9.77;6.77;;;;;;;29.08;76.95;100955.00;31127836;28;20065;-77
2023/08/14 20:34:52;;;;;;;11.20;7.37;;;;;;;28.80;80.79;100953.31;31115374;28;20049;-77
2023/08/14 20:49:54;;;;;;;16.57;8.13;;;;;;;28.74;81.02;100958.19;31109617;28;20414;-79
2023/08/14 21:04:56;;;;;;;9.43;7.60;;;;;;;28.43;84.78;100959.50;31109810;28;20133;-78
2023/08/14 21:19:58;;;;;;;11.43;8.03;;;;;;;28.12;87.94;100944.03;31123990;28;20059;-78
2023/08/14 21:35:01;;;;;;;11.57;7.20;;;;;;;28.15;86.72;100940.19;31112320;28;20570;-79
2023/08/14 21:50:04;;;;;;;11.53;8.27;;;;;;;28.09;85.70;100928.34;31131027;28;20050;-78
2023/08/14 22:05:06;;;;;;;10.83;7.80;;;;;;;27.94;87.27;100919.56;31121879;28;20474;-78
2023/08/14 22:20:10;;;;;;;8.10;6.50;;;;;;;27.77;90.22;100910.59;31139302;28;20534;-79
2023/08/14 22:35:12;;;;;;;9.77;6.65;;;;;;;27.60;92.68;100912.75;31129394;28;20112;-79
2023/08/14 22:50:14;;;;;;;11.93;7.73;;;;;;;27.64;93.35;100902.03;31123004;28;20514;-78
2023/08/14 23:05:16;;;;;;;13.73;7.57;;;;;;;27.81;92.59;100917.41;31149084;28;20579;-79
2023/08/14 23:20:19;;;;;;;10.37;6.70;;;;;;;27.87;92.06;100914.56;31149455;28;20080;-77
2023/08/14 23:35:21;;;;;;;9.30;6.47;;;;;;;27.70;94.33;100925.84;31177995;28;20049;-78
2023/08/14 23:50:23;;;;;;;9.67;6.77;;;;;;;27.44;97.45;100917.88;31186287;28;20156;-77
